Salem-Leckrone, IL

7:45 AM CDT on August 24, 2016 (GMT -0500)
Salem-Leckrone | | Change Station

Elev 574 ft 38.64 °N, 88.96 °W | Updated 10 minutes ago

Overcast
Overcast
76 °F
Feels Like 76 °F
N
9
Wind Variable Wind from South

Today
High -- | Low -- °F
--% Chance of Precip.
Yesterday
High -- | Low -- °F
Precip. -- in
Pressure 30.09 in
Visibility 10.0 miles
Clouds Scattered Clouds 900 ft
Scattered Clouds 6000 ft
Overcast 10000 ft
Dew Point 73 °F
Humidity 89%
Rainfall 0.00 in
Snow Depth Not available.
6:18 AM 7:37 PM
Waning Gibbous, 57% visible
METAR KSLO 241235Z AUTO 18008KT 10SM SCT009 SCT060 OVC100 25/23 A3009 RMK AO2 T02470228
Pressure 30.09 in
Visibility 10.0 miles
Clouds Scattered Clouds 900 ft
Scattered Clouds 6000 ft
Overcast 10000 ft
Dew Point 73 °F
Humidity 89%
Rainfall 0.00 in
Snow Depth Not available.
6:18 AM 7:37 PM
Waning Gibbous, 57% visible
METAR KSLO 241235Z AUTO 18008KT 10SM SCT009 SCT060 OVC100 25/23 A3009 RMK AO2 T02470228

10-Day Weather Forecast

Almanac

Astronomy

Aug. 24, 2016 Rise Set
Actual Time
Civil Twilight
Nautical Twilight
Astronomical Twilight
Moon
Length of Visible Light
Length of Day
Tomorrow will be .
, % of the Moon is Illuminated

Today's Extremes

State Highs State Lows

Community

WunderPhotos

Upload Photos

1,934,584 photos uploaded!

WunderBlog® & News

Nearby

Air Quality

  Air Quality AQ Index Pollutant
Not available.

Snow Depth

Station Depth Elevation

Earthquake Activity

City Distance Mag. Time & Date
Minimum magnitude displayed is 2.5.

Coastal Water Temperatures

Place Temperature

Stations

Nearby Weather Stations

Station Location Temp. Windchill Dew Point Humidity Wind Precip. Elev Updated Type
                   

Watches & Warnings

There are currently no watches in effect.